Time;durP1;ratioP1;P1;durP2;ratioP2;P2;SDS_P1;SDS_P2;PMS_P1;PMS_P2;Temp;Humidity;BMP_temperature;BMP_pressure;BME280_temperature;BME280_humidity;BME280_pressure;Samples;Min_cycle;Max_cycle;Signal;HPM_P1;HPM_P2
2021/03/06 00:01:24;;;;;;;7.75;2.90;;;;;;;-0.72;55.21;99812.91;1714666;83;21152;-76
2021/03/06 00:03:53;;;;;;;5.12;2.92;;;;;;;-0.81;55.75;99807.94;1727735;83;21571;-75
2021/03/06 00:06:20;;;;;;;6.03;3.08;;;;;;;-0.84;55.55;99818.79;1726598;83;21181;-76
2021/03/06 00:08:47;;;;;;;5.45;3.15;;;;;;;-0.91;55.80;99812.05;1716081;83;21586;-76
2021/03/06 00:11:15;;;;;;;5.95;3.20;;;;;;;-0.87;55.78;99816.28;1706709;83;21119;-77
2021/03/06 00:13:42;;;;;;;5.80;3.17;;;;;;;-0.94;55.79;99802.17;1704327;83;21170;-77
2021/03/06 00:16:10;;;;;;;4.97;2.72;;;;;;;-0.97;55.86;99813.90;1709464;83;21587;-78
2021/03/06 00:18:37;;;;;;;4.78;2.70;;;;;;;-0.99;55.98;99819.97;1702008;84;21150;-78
2021/03/06 00:21:05;;;;;;;5.33;2.77;;;;;;;-1.00;55.56;99822.61;1705573;83;21185;-77
2021/03/06 00:23:35;;;;;;;4.37;3.05;;;;;;;-1.02;55.87;99820.05;1702148;84;21142;-77
2021/03/06 00:26:02;;;;;;;4.08;2.40;;;;;;;-1.04;56.19;99822.27;1705476;83;21189;-77
2021/03/06 00:28:30;;;;;;;6.30;2.90;;;;;;;-1.11;56.51;99827.17;1707218;83;21629;-76
2021/03/06 00:30:58;;;;;;;3.50;2.70;;;;;;;-1.14;56.16;99822.06;1697407;84;21171;-76
2021/03/06 00:33:26;;;;;;;5.72;2.60;;;;;;;-1.17;55.99;99834.66;1714450;83;21194;-77
2021/03/06 00:35:53;;;;;;;5.10;2.52;;;;;;;-1.19;55.71;99828.20;1732829;82;21172;-76
2021/03/06 00:38:21;;;;;;;5.00;2.50;;;;;;;-1.18;55.54;99827.75;1711796;82;21866;-76
2021/03/06 00:40:48;;;;;;;6.72;3.00;;;;;;;-1.21;55.44;99841.65;1733787;82;21215;-77
2021/03/06 00:43:16;;;;;;;4.83;2.80;;;;;;;-1.24;55.14;99833.94;1714450;82;21199;-77
2021/03/06 00:45:44;;;;;;;3.85;2.58;;;;;;;-1.29;54.71;99827.11;1732651;81;21191;-76
2021/03/06 00:50:44;;;;;;;6.37;2.60;;;;;;;-1.31;55.41;99827.16;1749362;79;22731;-76
2021/03/06 00:53:12;;;;;;;4.60;2.58;;;;;;;-1.40;55.23;99828.64;1773993;80;21595;-76
2021/03/06 00:55:40;;;;;;;5.55;2.62;;;;;;;-1.43;55.33;99840.36;1712446;84;21194;-76
2021/03/06 00:58:08;;;;;;;5.55;2.90;;;;;;;-1.47;54.18;99824.03;1740991;82;21178;-76
2021/03/06 01:00:36;;;;;;;7.25;2.65;;;;;;;-1.52;54.39;99832.34;1697824;84;21174;-76
2021/03/06 01:03:06;;;;;;;4.65;2.62;;;;;;;-1.53;54.70;99835.36;1712204;84;21170;-76
2021/03/06 01:05:34;;;;;;;5.17;2.35;;;;;;;-1.55;53.49;99831.96;1719494;82;21653;-76
2021/03/06 01:08:05;;;;;;;4.67;2.50;;;;;;;-1.62;52.53;99835.55;1707974;84;21728;-76
2021/03/06 01:10:41;;;;;;;5.08;2.50;;;;;;;-1.56;52.48;99842.34;1680182;84;21178;-76
2021/03/06 01:13:08;;;;;;;3.87;2.30;;;;;;;-1.59;53.01;99839.36;1749522;80;21198;-75
2021/03/06 01:15:35;;;;;;;4.20;2.47;;;;;;;-1.63;52.60;99840.77;1724786;82;21175;-75
2021/03/06 01:18:04;;;;;;;4.62;2.20;;;;;;;-1.62;52.61;99839.44;1726399;82;21198;-75
2021/03/06 01:20:32;;;;;;;5.78;2.60;;;;;;;-1.69;53.09;99831.34;1750250;82;21659;-75
2021/03/06 01:22:59;;;;;;;3.80;2.08;;;;;;;-1.72;52.90;99834.01;1750120;82;21147;-75
2021/03/06 01:25:27;;;;;;;3.87;2.33;;;;;;;-1.75;53.04;99841.83;1734344;82;21138;-75
2021/03/06 01:27:54;;;;;;;4.00;2.40;;;;;;;-1.71;52.99;99842.20;1720693;83;21186;-75
2021/03/06 01:30:23;;;;;;;3.47;2.40;;;;;;;-1.72;53.23;99842.63;1722698;82;21139;-75
2021/03/06 01:32:51;;;;;;;5.00;2.70;;;;;;;-1.78;53.46;99839.30;1716651;82;21155;-76
2021/03/06 01:35:23;;;;;;;4.55;2.50;;;;;;;-1.82;54.08;99845.85;1720307;83;21159;-77
2021/03/06 01:37:52;;;;;;;5.15;3.00;;;;;;;-1.86;54.44;99846.77;1730542;82;21199;-75
2021/03/06 01:40:27;;;;;;;5.42;2.77;;;;;;;-1.88;54.70;99856.75;1720105;83;22177;-75
2021/03/06 01:42:56;;;;;;;4.55;2.35;;;;;;;-1.91;54.87;99858.95;1728511;82;21202;-75
2021/03/06 01:45:23;;;;;;;4.83;2.62;;;;;;;-1.90;54.35;99851.59;1727059;82;21590;-75
2021/03/06 01:47:50;;;;;;;6.08;2.72;;;;;;;-1.91;54.42;99860.25;1720917;83;21189;-75
2021/03/06 01:50:24;;;;;;;5.17;2.58;;;;;;;-1.98;54.76;99861.26;1679772;82;21185;-75
2021/03/06 01:52:51;;;;;;;4.53;2.47;;;;;;;-1.99;54.45;99868.16;1662837;84;21622;-75
2021/03/06 01:55:19;;;;;;;4.20;2.60;;;;;;;-2.01;54.19;99872.53;1676535;84;21194;-75
2021/03/06 01:57:46;;;;;;;5.22;2.62;;;;;;;-2.00;54.53;99869.48;1696807;84;21205;-75
2021/03/06 02:00:16;;;;;;;4.12;2.30;;;;;;;-2.07;54.15;99866.16;1698596;84;21709;-75
2021/03/06 02:02:43;;;;;;;4.53;2.40;;;;;;;-2.05;54.28;99878.63;1684016;84;21260;-76
2021/03/06 02:05:13;;;;;;;4.17;2.70;;;;;;;-2.12;53.61;99878.33;1652027;85;21219;-75
2021/03/06 02:07:40;;;;;;;4.10;2.60;;;;;;;-2.15;53.16;99879.66;1671336;86;21921;-77
2021/03/06 02:10:11;;;;;;;5.53;2.45;;;;;;;-2.20;52.58;99877.58;1684947;84;21617;-75
2021/03/06 02:12:56;;;;;;;4.42;2.45;;;;;;;-2.24;53.07;99885.84;1665205;86;21182;-75
2021/03/06 02:15:50;;;;;;;6.78;2.80;;;;;;;-2.24;52.90;99887.13;1680111;84;22206;-75
2021/03/06 02:18:23;;;;;;;;;;;;;;;-2.32;53.07;99889.00;1673858;85;21168;-75
2021/03/06 02:21:16;;;;;;;5.90;2.90;;;;;;;-2.37;52.44;99892.09;1644449;86;20165;-76
2021/03/06 02:24:24;;;;;;;4.30;2.20;;;;;;;-2.36;52.82;99901.59;1702542;84;21324;-76
2021/03/06 02:27:30;;;;;;;4.25;2.35;;;;;;;-2.47;52.02;99900.02;1660846;86;21144;-75
2021/03/06 02:30:08;;;;;;;6.42;2.87;;;;;;;-2.51;51.78;99912.56;1684401;85;21170;-76
2021/03/06 02:32:45;;;;;;;3.35;2.30;;;;;;;-2.55;52.10;99909.61;1660122;86;21185;-76
2021/03/06 02:35:16;;;;;;;7.83;2.95;;;;;;;-2.55;52.42;99910.91;1671727;85;21147;-75
2021/03/06 02:37:55;;;;;;;3.65;2.65;;;;;;;-2.62;52.72;99913.19;1661330;86;21236;-75
2021/03/06 02:40:22;;;;;;;7.05;3.55;;;;;;;-2.62;52.37;99922.24;1679397;85;21162;-75
2021/03/06 02:42:51;;;;;;;6.08;2.92;;;;;;;-2.67;51.80;99914.98;1607469;86;21619;-75
2021/03/06 02:45:18;;;;;;;6.15;3.02;;;;;;;-2.73;51.89;99922.38;1664720;86;21182;-75
2021/03/06 02:47:47;;;;;;;4.87;2.55;;;;;;;-2.75;51.96;99925.44;1633857;86;21658;-75
2021/03/06 02:50:15;;;;;;;5.37;2.90;;;;;;;-2.84;51.68;99922.52;1676261;84;21198;-75
2021/03/06 02:52:43;;;;;;;4.90;2.83;;;;;;;-2.83;52.00;99932.42;1686180;82;21205;-75
2021/03/06 02:55:11;;;;;;;7.30;2.83;;;;;;;-2.92;51.54;99932.09;1718521;82;21165;-75
2021/03/06 02:58:02;;;;;;;7.33;2.95;;;;;;;-2.96;51.31;99934.31;1714868;84;21297;-75
2021/03/06 03:01:07;;;;;;;4.30;2.65;;;;;;;-2.96;51.58;99939.03;1717020;82;21658;-77
2021/03/06 03:03:47;;;;;;;4.78;2.58;;;;;;;-3.00;50.89;99944.28;1715272;84;21551;-75
2021/03/06 03:06:34;;;;;;;11.53;3.10;;;;;;;-3.03;50.10;99945.59;1672559;82;21126;-75
2021/03/06 03:09:14;;;;;;;5.80;3.00;;;;;;;-3.03;49.90;99952.06;1714545;82;21198;-76
2021/03/06 03:12:03;;;;;;;4.15;2.50;;;;;;;-3.07;50.12;99948.68;1710315;82;21221;-76
2021/03/06 03:14:48;;;;;;;5.72;2.60;;;;;;;-3.06;50.20;99950.82;1743919;82;21164;-75
2021/03/06 03:17:43;;;;;;;4.70;2.50;;;;;;;-3.13;49.25;99953.47;1744975;82;21143;-76
2021/03/06 03:20:34;;;;;;;4.12;2.60;;;;;;;-3.15;49.42;99944.86;1717002;82;21608;-76
2021/03/06 03:23:18;;;;;;;7.95;3.05;;;;;;;-3.16;49.31;99953.52;1715685;83;21155;-75
2021/03/06 03:25:47;;;;;;;5.60;2.77;;;;;;;-3.14;49.84;99955.63;1725353;82;21166;-74
2021/03/06 03:28:15;;;;;;;4.92;2.65;;;;;;;-3.17;49.90;99962.15;1746346;82;21159;-74
2021/03/06 03:30:42;;;;;;;5.37;2.83;;;;;;;-3.21;50.29;99968.23;1708950;82;21211;-75
2021/03/06 03:33:12;;;;;;;5.65;2.83;;;;;;;-3.20;50.43;99966.48;1721912;82;21165;-75
2021/03/06 03:35:41;;;;;;;5.87;2.60;;;;;;;-3.24;50.72;99963.07;1715514;84;21663;-75
2021/03/06 03:38:08;;;;;;;5.05;2.75;;;;;;;-3.22;50.51;99964.34;1726292;82;21614;-75
2021/03/06 03:40:36;;;;;;;5.25;2.80;;;;;;;-3.43;50.86;99931.37;1715943;82;21646;-76
2021/03/06 03:43:03;;;;;;;6.15;2.98;;;;;;;-3.21;51.08;99975.99;1681127;85;21183;-76
2021/03/06 03:45:31;;;;;;;6.65;2.98;;;;;;;-3.25;50.93;99963.94;1730813;82;21205;-75
2021/03/06 03:48:00;;;;;;;6.62;3.00;;;;;;;-3.28;50.96;99975.63;1713773;84;21166;-75
2021/03/06 03:50:27;;;;;;;7.62;4.05;;;;;;;-3.28;51.10;99983.83;1724933;82;21195;-75
2021/03/06 03:52:55;;;;;;;5.58;3.30;;;;;;;-3.33;51.35;99982.57;1746839;82;21268;-76
2021/03/06 03:55:22;;;;;;;5.20;2.80;;;;;;;-3.31;51.50;99984.27;1749958;82;21510;-75
2021/03/06 03:57:51;;;;;;;5.80;3.15;;;;;;;-3.36;51.61;99986.49;1741662;82;21187;-75
2021/03/06 04:00:20;;;;;;;6.50;3.00;;;;;;;-3.37;51.48;99983.03;1690630;82;21172;-75
2021/03/06 04:02:47;;;;;;;5.45;3.08;;;;;;;-3.40;51.68;99986.08;1699219;82;21155;-75
2021/03/06 04:05:16;;;;;;;6.67;3.02;;;;;;;-3.39;51.66;99993.84;1729282;82;21472;-75
2021/03/06 04:07:48;;;;;;;6.53;3.35;;;;;;;-3.43;51.43;99980.50;1721459;82;21210;-75
2021/03/06 04:10:20;;;;;;;7.55;3.75;;;;;;;-3.47;51.78;99983.55;1736981;82;21187;-75
2021/03/06 04:12:48;;;;;;;6.58;3.50;;;;;;;-3.50;52.14;99984.88;1721294;82;21177;-75
2021/03/06 04:15:16;;;;;;;7.70;3.98;;;;;;;-3.58;52.33;99994.86;1720801;82;21194;-76
2021/03/06 04:17:44;;;;;;;6.78;3.60;;;;;;;-3.58;52.27;99992.27;1720461;82;21620;-77
2021/03/06 04:20:14;;;;;;;5.37;3.22;;;;;;;-3.58;52.33;99999.61;1720442;83;21209;-75
2021/03/06 04:22:42;;;;;;;5.62;3.30;;;;;;;-3.59;52.70;99990.55;1734835;82;21163;-76
2021/03/06 04:25:11;;;;;;;7.47;3.75;;;;;;;-3.59;52.71;99990.14;1720690;82;21132;-76
2021/03/06 04:27:38;;;;;;;5.35;3.12;;;;;;;-3.62;53.03;99997.90;1720269;82;21244;-76
2021/03/06 04:30:08;;;;;;;7.28;3.98;;;;;;;-3.63;53.00;100005.26;1737425;82;21175;-76
2021/03/06 04:32:38;;;;;;;9.40;4.40;;;;;;;-3.65;53.36;100010.42;1724061;82;21707;-76
2021/03/06 04:35:07;;;;;;;6.10;3.77;;;;;;;-3.67;53.27;100009.59;1730224;82;21187;-78
2021/03/06 04:37:35;;;;;;;9.68;3.92;;;;;;;-3.65;53.81;100001.81;1741718;82;21298;-76
2021/03/06 04:40:06;;;;;;;9.63;4.12;;;;;;;-3.66;54.04;100002.27;1744627;82;21159;-76
2021/03/06 04:42:34;;;;;;;6.83;3.25;;;;;;;-3.69;54.32;100004.85;1715211;82;21603;-77
2021/03/06 04:45:01;;;;;;;8.75;4.12;;;;;;;-3.91;54.49;99970.58;1688843;85;21147;-76
2021/03/06 04:47:29;;;;;;;8.85;4.28;;;;;;;-3.73;54.65;100009.63;1695619;82;21643;-76
2021/03/06 04:49:56;;;;;;;11.18;3.75;;;;;;;-3.74;54.89;100014.38;1738086;82;21357;-76
2021/03/06 04:52:23;;;;;;;6.15;3.70;;;;;;;-3.69;54.92;100022.11;1688004;82;21131;-76
2021/03/06 04:54:51;;;;;;;7.85;3.72;;;;;;;-3.71;54.99;100009.61;1708296;82;21138;-76
2021/03/06 04:57:18;;;;;;;5.83;3.30;;;;;;;-3.69;54.88;100009.18;1744553;82;21655;-76
2021/03/06 04:59:46;;;;;;;8.25;3.45;;;;;;;-3.71;54.88;100014.37;1744915;82;21636;-82
2021/03/06 05:02:13;;;;;;;9.28;4.50;;;;;;;-3.69;54.67;100012.61;1741464;82;21199;-77
2021/03/06 05:04:42;;;;;;;10.13;5.00;;;;;;;-3.66;54.76;100011.31;1700705;82;21243;-77
2021/03/06 05:07:09;;;;;;;11.45;5.45;;;;;;;-3.66;54.59;100024.66;1698426;82;21679;-77
2021/03/06 05:09:37;;;;;;;11.08;4.70;;;;;;;-3.63;54.44;100016.89;1717141;82;21182;-77
2021/03/06 05:12:05;;;;;;;8.33;3.83;;;;;;;-3.56;54.50;100030.62;1695846;82;21140;-77
2021/03/06 05:14:32;;;;;;;6.78;4.08;;;;;;;-3.17;54.15;100028.11;1707080;82;21181;-77
2021/03/06 05:17:01;;;;;;;10.32;4.30;;;;;;;-2.71;53.62;100032.38;1715011;84;21154;-78
2021/03/06 05:19:30;;;;;;;7.70;3.62;;;;;;;-2.27;52.19;100033.57;1721483;82;21191;-77
2021/03/06 05:21:58;;;;;;;5.97;3.20;;;;;;;-1.99;51.03;100042.27;1740770;82;21195;-77
2021/03/06 05:24:26;;;;;;;5.97;3.30;;;;;;;-1.83;50.39;100044.19;1701567;82;21199;-77
2021/03/06 05:27:02;;;;;;;8.55;4.10;;;;;;;-1.70;49.78;100047.45;1713420;82;21174;-77
2021/03/06 05:29:22;;;;;;;8.35;3.98;;;;;;;-1.51;50.14;100051.50;1711928;84;21189;-78
2021/03/06 05:31:50;;;;;;;6.97;3.72;;;;;;;-1.30;50.00;100057.63;1715651;82;21159;-78
2021/03/06 05:34:18;;;;;;;8.08;3.50;;;;;;;-1.14;49.99;100062.98;1742115;82;21179;-78
2021/03/06 05:36:45;;;;;;;8.93;3.85;;;;;;;-1.02;48.92;100064.08;1745099;82;21564;-77
2021/03/06 05:39:15;;;;;;;8.85;4.08;;;;;;;-0.85;48.74;100065.06;1744328;82;21195;-78
2021/03/06 05:41:44;;;;;;;11.48;5.00;;;;;;;-0.75;48.85;100072.70;1727713;82;21483;-79
2021/03/06 05:44:11;;;;;;;7.35;4.15;;;;;;;-0.64;48.71;100078.98;1667238;86;21179;-79
2021/03/06 05:46:39;;;;;;;9.25;4.12;;;;;;;-0.66;47.80;100079.02;1732709;82;21148;-79
2021/03/06 05:49:07;;;;;;;10.65;3.90;;;;;;;-0.55;47.93;100094.39;1744807;82;21206;-80
2021/03/06 05:51:36;;;;;;;8.95;4.17;;;;;;;-0.52;48.09;100084.80;1742041;82;21615;-79
2021/03/06 05:54:10;;;;;;;12.50;3.90;;;;;;;-0.43;46.87;100077.27;1711611;82;21191;-79
2021/03/06 05:56:43;;;;;;;6.50;3.87;;;;;;;-0.41;46.66;100083.73;1744779;82;21171;-77
2021/03/06 05:59:13;;;;;;;7.90;3.75;;;;;;;-0.34;47.15;100094.42;1740305;82;21124;-77
2021/03/06 06:01:43;;;;;;;8.78;3.87;;;;;;;-0.35;46.39;100098.75;1708785;82;21700;-76
2021/03/06 06:04:11;;;;;;;7.33;4.45;;;;;;;-0.31;46.67;100099.55;1695255;82;21623;-76
2021/03/06 06:06:41;;;;;;;9.35;3.72;;;;;;;-0.39;46.54;100104.06;1726603;82;21276;-76
2021/03/06 06:09:10;;;;;;;12.68;3.80;;;;;;;-0.43;46.98;100111.05;1690401;83;21215;-78
2021/03/06 06:11:37;;;;;;;11.43;4.00;;;;;;;-0.43;47.27;100118.00;1718392;82;21210;-78
2021/03/06 06:14:05;;;;;;;8.03;4.45;;;;;;;-0.38;47.35;100113.57;1718679;82;21574;-78
2021/03/06 06:16:33;;;;;;;8.03;3.80;;;;;;;-0.28;47.06;100124.20;1700726;83;21320;-78
2021/03/06 06:19:03;;;;;;;8.18;4.33;;;;;;;-0.22;45.97;100118.01;1727640;82;21159;-78
2021/03/06 06:21:46;;;;;;;6.28;3.92;;;;;;;-0.18;46.24;100123.55;1708374;82;21214;-76
2021/03/06 06:24:18;;;;;;;10.10;4.30;;;;;;;-0.15;46.17;100134.33;1700091;82;21183;-76
2021/03/06 06:27:05;;;;;;;7.33;3.42;;;;;;;-0.07;46.39;100129.85;1749871;82;21183;-76
2021/03/06 06:29:46;;;;;;;6.58;3.80;;;;;;;-0.11;44.97;100134.71;1726962;82;21158;-76
2021/03/06 06:32:16;;;;;;;6.53;3.58;;;;;;;-0.14;45.43;100139.95;1708576;82;21166;-78
2021/03/06 06:35:04;;;;;;;7.12;3.62;;;;;;;-0.24;44.43;100134.94;1690899;83;21634;-78
2021/03/06 06:37:32;;;;;;;6.75;3.65;;;;;;;-0.21;44.67;100136.17;1729140;82;21151;-77
2021/03/06 06:40:00;;;;;;;8.20;3.77;;;;;;;-0.17;45.61;100143.05;1677485;83;21154;-77
2021/03/06 06:42:34;;;;;;;6.53;3.77;;;;;;;-0.05;45.47;100152.76;1678197;82;21222;-76
2021/03/06 06:45:04;;;;;;;7.95;3.85;;;;;;;-0.02;45.00;100139.71;1715729;82;21179;-77
2021/03/06 06:47:37;;;;;;;10.28;5.65;;;;;;;0.10;44.81;100143.80;1740330;82;21182;-76
2021/03/06 06:50:07;;;;;;;9.08;4.70;;;;;;;0.14;44.51;100146.73;1722649;82;21181;-76
2021/03/06 06:52:41;;;;;;;7.92;4.25;;;;;;;0.15;44.09;100145.43;1712369;84;21160;-77
2021/03/06 06:55:11;;;;;;;4.53;2.95;;;;;;;0.13;43.77;100151.55;1712723;82;21180;-77
2021/03/06 06:57:50;;;;;;;6.37;3.30;;;;;;;0.11;43.70;100148.11;1739840;82;21195;-76
2021/03/06 07:00:19;;;;;;;7.40;3.30;;;;;;;0.11;43.38;100146.36;1708285;84;21643;-77
2021/03/06 07:02:55;;;;;;;7.95;3.45;;;;;;;0.10;43.02;100136.87;1715419;82;21134;-76
2021/03/06 07:05:39;;;;;;;5.22;3.05;;;;;;;0.15;42.66;100149.75;1684910;84;21195;-76
2021/03/06 07:08:24;;;;;;;5.55;3.12;;;;;;;0.13;42.49;100151.09;1698287;82;21183;-76
2021/03/06 07:10:51;;;;;;;5.22;3.08;;;;;;;0.19;42.34;100156.59;1702332;82;21185;-76
2021/03/06 07:13:19;;;;;;;6.78;3.05;;;;;;;0.22;42.54;100158.28;1693565;82;21191;-76
2021/03/06 07:15:53;;;;;;;7.17;3.10;;;;;;;0.32;42.00;100146.81;1670801;84;21207;-76
2021/03/06 07:18:21;;;;;;;7.75;4.65;;;;;;;0.33;41.60;100155.00;1687732;84;21292;-76
2021/03/06 07:20:49;;;;;;;14.60;7.35;;;;;;;0.41;42.12;100158.31;1699725;82;21179;-77
2021/03/06 07:23:24;;;;;;;8.43;4.05;;;;;;;0.42;41.67;100154.83;1708365;82;21197;-77
2021/03/06 07:25:55;;;;;;;6.97;3.25;;;;;;;0.47;41.99;100165.99;1688247;84;21162;-76
2021/03/06 07:28:23;;;;;;;6.50;3.60;;;;;;;0.55;42.61;100158.02;1676421;84;21139;-76
2021/03/06 07:30:51;;;;;;;6.50;3.33;;;;;;;0.71;41.57;100159.80;1675198;83;21157;-77
2021/03/06 07:33:21;;;;;;;6.25;3.58;;;;;;;0.73;40.76;100160.64;1670726;85;21167;-77
2021/03/06 07:35:50;;;;;;;4.92;2.70;;;;;;;0.80;40.57;100166.09;1660029;86;21171;-76
2021/03/06 07:38:19;;;;;;;5.17;2.50;;;;;;;0.73;41.01;100168.45;1692278;84;21123;-77
2021/03/06 07:40:50;;;;;;;6.05;3.15;;;;;;;0.78;39.24;100173.10;1700213;82;21178;-78
2021/03/06 07:43:25;;;;;;;5.08;2.50;;;;;;;0.72;39.38;100174.53;1693799;82;21648;-74
2021/03/06 07:45:52;;;;;;;3.87;2.75;;;;;;;0.76;40.04;100174.03;1688697;84;21643;-76
2021/03/06 07:48:21;;;;;;;3.60;2.50;;;;;;;0.79;39.38;100173.95;1706638;82;21174;-79
2021/03/06 07:50:53;;;;;;;3.92;2.40;;;;;;;0.82;40.22;100175.20;1702508;83;21165;-78
2021/03/06 07:53:23;;;;;;;3.95;2.25;;;;;;;0.85;39.38;100169.06;1723893;82;21698;-80
2021/03/06 07:55:53;;;;;;;4.50;2.47;;;;;;;0.88;39.45;100175.02;1713167;82;21485;-78
2021/03/06 07:58:22;;;;;;;3.67;2.30;;;;;;;0.97;39.57;100175.25;1714656;83;21135;-79
2021/03/06 08:00:57;;;;;;;5.45;2.52;;;;;;;0.99;39.07;100161.77;1716363;82;21666;-78
2021/03/06 08:03:34;;;;;;;6.05;2.90;;;;;;;0.99;38.69;100169.58;1715960;82;21179;-79
2021/03/06 08:06:19;;;;;;;4.67;2.90;;;;;;;1.00;38.63;100169.98;1711662;82;21163;-79
2021/03/06 08:09:03;;;;;;;6.67;3.10;;;;;;;0.92;38.37;100179.72;1712164;82;21151;-79
2021/03/06 08:11:38;;;;;;;4.87;2.95;;;;;;;0.95;39.35;100179.66;1709043;82;21201;-79
2021/03/06 08:14:27;;;;;;;3.95;2.50;;;;;;;0.96;40.01;100172.27;1730261;82;21859;-77
2021/03/06 08:16:56;;;;;;;4.53;2.80;;;;;;;0.99;39.72;100176.09;1713722;83;21276;-78
2021/03/06 08:19:25;;;;;;;3.55;2.30;;;;;;;1.04;37.94;100167.71;1722388;82;21197;-78
2021/03/06 08:21:56;;;;;;;6.28;2.40;;;;;;;1.02;39.38;100173.85;1725225;82;21578;-79
2021/03/06 08:24:27;;;;;;;4.35;2.55;;;;;;;1.11;40.83;100181.01;1716187;83;21748;-78
2021/03/06 08:27:09;;;;;;;4.28;2.17;;;;;;;1.20;40.20;100169.94;1721328;82;21559;-79
2021/03/06 08:29:40;;;;;;;4.78;2.42;;;;;;;1.21;38.80;100171.66;1706475;83;21190;-78
2021/03/06 08:32:30;;;;;;;7.45;2.87;;;;;;;1.21;38.85;100162.53;1732327;82;21229;-77
2021/03/06 08:35:18;;;;;;;4.40;2.52;;;;;;;1.17;38.02;100168.72;1698469;83;21155;-77
2021/03/06 08:37:46;;;;;;;3.35;2.05;;;;;;;1.14;39.78;100173.56;1705395;82;21167;-77
2021/03/06 08:40:19;;;;;;;3.42;2.30;;;;;;;1.20;37.78;100182.50;1731217;82;21183;-77
2021/03/06 08:42:53;;;;;;;4.40;2.40;;;;;;;1.15;38.01;100170.04;1715563;83;21582;-77
2021/03/06 08:45:27;;;;;;;4.40;2.40;;;;;;;1.21;39.03;100168.59;1724397;82;21143;-78
2021/03/06 08:47:58;;;;;;;3.05;2.08;;;;;;;1.34;39.35;100173.05;1710402;83;21139;-77
2021/03/06 08:50:27;;;;;;;3.60;2.55;;;;;;;1.61;40.91;100162.80;1725045;82;21120;-77
2021/03/06 08:53:00;;;;;;;5.67;2.35;;;;;;;1.77;37.52;100160.64;1700170;82;21142;-77
2021/03/06 08:55:31;;;;;;;3.80;2.42;;;;;;;1.76;37.06;100161.53;1719975;83;21165;-77
2021/03/06 08:58:04;;;;;;;3.80;2.20;;;;;;;1.53;36.37;100163.45;1721921;82;21198;-76
2021/03/06 09:00:39;;;;;;;4.08;2.47;;;;;;;1.53;36.77;100165.60;1694385;83;21174;-77
2021/03/06 09:03:21;;;;;;;4.45;2.50;;;;;;;1.58;38.36;100165.50;1707582;82;21149;-77
2021/03/06 09:05:51;;;;;;;4.15;2.33;;;;;;;1.77;37.51;100159.34;1710773;82;21175;-77
2021/03/06 09:08:22;;;;;;;3.80;2.15;;;;;;;1.76;35.98;100161.53;1670754;85;21154;-78
2021/03/06 09:10:51;;;;;;;4.05;2.15;;;;;;;1.74;37.89;100158.97;1715921;82;21255;-78
2021/03/06 09:13:21;;;;;;;4.47;2.40;;;;;;;1.85;38.04;100162.57;1712417;83;21543;-78
2021/03/06 09:16:03;;;;;;;5.22;2.45;;;;;;;2.01;37.42;100165.63;1712824;83;21198;-78
2021/03/06 09:18:35;;;;;;;5.28;2.60;;;;;;;1.97;36.83;100160.09;1721066;82;21131;-79
2021/03/06 09:21:15;;;;;;;3.52;2.00;;;;;;;1.93;37.53;100167.58;1706923;82;21207;-79
2021/03/06 09:23:44;;;;;;;3.67;2.17;;;;;;;1.90;38.93;100168.98;1720313;82;21840;-77
2021/03/06 09:26:22;;;;;;;2.92;1.92;;;;;;;2.07;36.95;100175.89;1690081;83;21568;-77
2021/03/06 09:28:51;;;;;;;3.35;2.20;;;;;;;2.10;37.98;100167.96;1694623;82;21635;-77
2021/03/06 09:31:25;;;;;;;3.37;2.20;;;;;;;2.30;38.05;100171.73;1718524;82;21733;-78
2021/03/06 09:33:53;;;;;;;;;;;;;;;2.32;37.73;100167.80;1709662;83;21182;-78
2021/03/06 09:36:23;;;;;;;4.28;2.00;;;;;;;2.34;36.99;100169.47;1724883;82;20128;-78
2021/03/06 09:38:57;;;;;;;2.72;1.80;;;;;;;2.25;36.45;100170.59;1709268;82;21194;-78
2021/03/06 09:41:30;;;;;;;4.33;2.45;;;;;;;2.16;34.51;100161.70;1710536;82;21142;-78
2021/03/06 09:44:01;;;;;;;5.12;2.45;;;;;;;2.08;35.63;100156.70;1753132;82;21171;-79
2021/03/06 09:46:36;;;;;;;3.17;2.00;;;;;;;2.08;38.25;100167.14;1701178;82;21571;-79
2021/03/06 09:49:14;;;;;;;4.00;2.00;;;;;;;2.22;38.05;100164.13;1739615;82;21167;-79
2021/03/06 09:51:50;;;;;;;3.52;2.17;;;;;;;2.32;34.46;100158.20;1729064;82;21318;-79
2021/03/06 09:54:22;;;;;;;2.65;1.90;;;;;;;2.26;34.30;100160.99;1699923;82;21619;-78
2021/03/06 09:56:52;;;;;;;3.90;2.10;;;;;;;2.18;34.97;100160.38;1725363;82;21186;-79
2021/03/06 09:59:20;;;;;;;2.83;1.87;;;;;;;2.22;35.74;100154.16;1723949;82;21147;-78
2021/03/06 10:01:48;;;;;;;3.40;1.77;;;;;;;2.19;34.57;100159.48;1720237;82;21618;-78
2021/03/06 10:04:21;;;;;;;4.45;1.87;;;;;;;2.20;36.51;100165.08;1719106;82;21175;-79
2021/03/06 10:06:51;;;;;;;3.50;2.10;;;;;;;2.26;38.34;100159.25;1710929;83;21189;-79
2021/03/06 10:09:20;;;;;;;4.28;2.20;;;;;;;2.50;37.50;100162.02;1714440;82;21222;-78
2021/03/06 10:11:51;;;;;;;3.02;1.87;;;;;;;2.63;37.58;100159.88;1717360;82;21186;-78
2021/03/06 10:14:24;;;;;;;2.17;1.70;;;;;;;2.68;35.04;100153.22;1747272;82;21587;-78
2021/03/06 10:17:00;;;;;;;4.03;2.08;;;;;;;2.67;36.12;100150.20;1719135;82;21138;-79
2021/03/06 10:19:33;;;;;;;3.62;2.37;;;;;;;2.68;36.35;100147.53;1702157;82;21702;-78
2021/03/06 10:22:09;;;;;;;3.57;2.70;;;;;;;2.56;35.43;100148.78;1723516;82;21563;-78
2021/03/06 10:24:58;;;;;;;4.33;2.20;;;;;;;2.45;35.65;100151.70;1706131;82;21146;-78
2021/03/06 10:30:27;;;;;;;3.12;2.10;;;;;;;2.28;36.57;100147.45;1808332;78;23095;-77
2021/03/06 10:32:57;;;;;;;6.35;3.10;;;;;;;2.21;36.57;100140.27;1767300;79;21152;-77
2021/03/06 10:35:49;;;;;;;3.10;2.12;;;;;;;2.13;35.82;100139.16;1764017;80;21185;-77
2021/03/06 10:38:27;;;;;;;4.83;2.22;;;;;;;2.13;37.98;100135.25;1766152;79;21168;-79
2021/03/06 10:40:59;;;;;;;2.77;2.00;;;;;;;2.41;39.70;100139.65;1768423;80;21131;-79
2021/03/06 10:43:40;;;;;;;4.95;2.35;;;;;;;2.62;37.96;100129.44;1765484;79;21169;-78
2021/03/06 10:46:25;;;;;;;10.28;4.10;;;;;;;2.59;37.47;100129.08;1785480;80;21118;-79
2021/03/06 10:48:57;;;;;;;6.30;2.90;;;;;;;2.52;36.32;100128.02;1763140;80;21157;-80
2021/03/06 10:51:49;;;;;;;2.92;1.90;;;;;;;2.33;35.56;100114.24;1799677;79;21166;-80
2021/03/06 10:54:18;;;;;;;5.17;2.20;;;;;;;2.23;35.57;100119.34;1789829;80;21635;-80
2021/03/06 10:56:45;;;;;;;3.17;2.10;;;;;;;2.36;36.89;100115.91;1796636;79;21154;-79
2021/03/06 10:59:12;;;;;;;5.50;2.60;;;;;;;2.54;35.25;100105.34;1776826;79;21611;-80
2021/03/06 11:01:53;;;;;;;2.42;1.82;;;;;;;2.66;38.17;100108.00;1763899;79;21162;-80
2021/03/06 11:04:33;;;;;;;4.22;2.22;;;;;;;2.92;36.59;100124.16;1761214;81;21302;-80
2021/03/06 11:07:08;;;;;;;3.75;2.17;;;;;;;2.84;35.71;100126.14;1776687;79;21177;-77
2021/03/06 11:09:38;;;;;;;6.45;3.17;;;;;;;2.70;36.22;100123.54;1745071;81;21544;-78
2021/03/06 11:12:25;;;;;;;6.58;3.02;;;;;;;2.58;36.86;100116.95;1745197;81;21194;-79
2021/03/06 11:15:17;;;;;;;3.40;2.20;;;;;;;2.45;35.06;100116.92;1760811;81;21155;-79
2021/03/06 11:17:54;;;;;;;4.12;2.20;;;;;;;2.30;36.19;100122.15;1755929;81;21183;-78
2021/03/06 11:20:29;;;;;;;3.92;2.12;;;;;;;2.15;36.32;100117.39;1729804;83;21183;-79
2021/03/06 11:23:02;;;;;;;3.00;2.20;;;;;;;2.12;37.87;100119.64;1739725;81;21142;-78
2021/03/06 11:25:29;;;;;;;3.00;2.02;;;;;;;2.22;39.10;100120.23;1729885;81;21118;-80
2021/03/06 11:28:04;;;;;;;10.28;3.30;;;;;;;2.38;37.81;100107.56;1770745;81;21185;-79
2021/03/06 11:30:44;;;;;;;3.45;2.08;;;;;;;2.53;38.25;100104.93;1715535;82;21589;-78
2021/03/06 11:33:16;;;;;;;6.20;2.47;;;;;;;2.63;36.93;100102.43;1715686;84;21157;-79
2021/03/06 11:35:45;;;;;;;4.65;1.92;;;;;;;2.67;38.03;100104.03;1715317;82;21205;-79
2021/03/06 11:38:15;;;;;;;3.65;2.40;;;;;;;2.83;38.07;100100.95;1715148;84;21604;-76
2021/03/06 11:40:46;;;;;;;2.70;1.90;;;;;;;3.03;37.92;100096.34;1713866;82;21636;-79
2021/03/06 11:43:15;;;;;;;4.83;2.02;;;;;;;3.16;38.43;100107.23;1714223;82;21200;-79
2021/03/06 11:45:42;;;;;;;5.62;2.80;;;;;;;3.15;37.53;100096.41;1729998;82;21559;-79
2021/03/06 11:48:10;;;;;;;3.65;2.30;;;;;;;3.27;38.28;100107.73;1714515;84;21197;-79
2021/03/06 11:50:42;;;;;;;4.08;2.10;;;;;;;3.28;37.04;100105.52;1717804;82;21664;-79
2021/03/06 11:53:10;;;;;;;7.35;3.33;;;;;;;3.15;37.39;100096.41;1714146;82;21189;-79
2021/03/06 11:55:37;;;;;;;3.67;2.17;;;;;;;2.92;36.49;100103.25;1714571;84;21181;-80
2021/03/06 11:58:05;;;;;;;4.28;2.60;;;;;;;2.72;36.96;100096.06;1714410;82;21177;-79
2021/03/06 12:00:33;;;;;;;4.17;2.22;;;;;;;2.59;38.50;100092.53;1714455;84;21161;-79